sensor_id;sensor_type;location;lat;lon;timestamp;pressure;altitude;pressure_sealevel;temperature;humidity
18985;BME280;9626;52.552;13.436;2023-04-26T00:01:21;100723.38;;;4.55;100.00
18985;BME280;9626;52.552;13.436;2023-04-26T00:03:47;100728.59;;;4.50;100.00
18985;BME280;9626;52.552;13.436;2023-04-26T00:06:13;100731.16;;;4.41;100.00
18985;BME280;9626;52.552;13.436;2023-04-26T00:08:39;100733.84;;;4.49;100.00
18985;BME280;9626;52.552;13.436;2023-04-26T00:11:07;100733.81;;;4.46;100.00
18985;BME280;9626;52.552;13.436;2023-04-26T00:13:33;100727.72;;;4.50;100.00
18985;BME280;9626;52.552;13.436;2023-04-26T00:15:59;100729.41;;;4.40;100.00
18985;BME280;9626;52.552;13.436;2023-04-26T00:18:25;100727.63;;;4.33;100.00
18985;BME280;9626;52.552;13.436;2023-04-26T00:20:51;100732.00;;;4.35;100.00
18985;BME280;9626;52.552;13.436;2023-04-26T00:23:17;100738.09;;;4.30;100.00
18985;BME280;9626;52.552;13.436;2023-04-26T00:25:43;100729.28;;;4.20;100.00
18985;BME280;9626;52.552;13.436;2023-04-26T00:28:09;100726.63;;;4.18;100.00
18985;BME280;9626;52.552;13.436;2023-04-26T00:30:35;100731.00;;;4.16;100.00
18985;BME280;9626;52.552;13.436;2023-04-26T00:33:02;100738.88;;;4.18;100.00
18985;BME280;9626;52.552;13.436;2023-04-26T00:35:28;100734.53;;;4.20;100.00
18985;BME280;9626;52.552;13.436;2023-04-26T00:37:54;100736.25;;;4.15;100.00
18985;BME280;9626;52.552;13.436;2023-04-26T00:40:20;100726.63;;;4.17;100.00
18985;BME280;9626;52.552;13.436;2023-04-26T00:42:46;100729.22;;;4.11;100.00
18985;BME280;9626;52.552;13.436;2023-04-26T00:45:13;100729.16;;;4.03;100.00
18985;BME280;9626;52.552;13.436;2023-04-26T00:47:39;100725.69;;;4.05;100.00
18985;BME280;9626;52.552;13.436;2023-04-26T00:50:07;100730.84;;;3.99;100.00
18985;BME280;9626;52.552;13.436;2023-04-26T00:52:33;100724.78;;;4.02;100.00
18985;BME280;9626;52.552;13.436;2023-04-26T00:55:00;100727.38;;;4.00;100.00
18985;BME280;9626;52.552;13.436;2023-04-26T00:57:26;100733.56;;;4.07;100.00
18985;BME280;9626;52.552;13.436;2023-04-26T00:59:52;100734.38;;;4.00;100.00
18985;BME280;9626;52.552;13.436;2023-04-26T01:02:18;100737.78;;;3.91;100.00
18985;BME280;9626;52.552;13.436;2023-04-26T01:04:44;100734.31;;;3.95;100.00
18985;BME280;9626;52.552;13.436;2023-04-26T01:07:10;100732.50;;;3.85;100.00
18985;BME280;9626;52.552;13.436;2023-04-26T01:09:36;100733.28;;;3.76;100.00
18985;BME280;9626;52.552;13.436;2023-04-26T01:12:02;100742.91;;;3.79;100.00
18985;BME280;9626;52.552;13.436;2023-04-26T01:14:30;100728.03;;;3.75;100.00
18985;BME280;9626;52.552;13.436;2023-04-26T01:16:57;100737.59;;;3.69;100.00
18985;BME280;9626;52.552;13.436;2023-04-26T01:19:23;100743.66;;;3.64;100.00
18985;BME280;9626;52.552;13.436;2023-04-26T01:21:50;100744.53;;;3.63;100.00
18985;BME280;9626;52.552;13.436;2023-04-26T01:24:16;100740.19;;;3.69;100.00
18985;BME280;9626;52.552;13.436;2023-04-26T01:26:43;100752.44;;;3.69;100.00
18985;BME280;9626;52.552;13.436;2023-04-26T01:29:16;100752.47;;;3.73;100.00
18985;BME280;9626;52.552;13.436;2023-04-26T01:31:45;100741.97;;;3.72;100.00
18985;BME280;9626;52.552;13.436;2023-04-26T01:34:13;100748.03;;;3.63;100.00
18985;BME280;9626;52.552;13.436;2023-04-26T01:36:39;100754.13;;;3.64;100.00
18985;BME280;9626;52.552;13.436;2023-04-26T01:39:05;100755.91;;;3.66;100.00
18985;BME280;9626;52.552;13.436;2023-04-26T01:41:33;100761.13;;;3.65;100.00
18985;BME280;9626;52.552;13.436;2023-04-26T01:43:59;100763.84;;;3.74;100.00
18985;BME280;9626;52.552;13.436;2023-04-26T01:46:26;100765.50;;;3.64;100.00
18985;BME280;9626;52.552;13.436;2023-04-26T01:48:52;100765.44;;;3.61;100.00
18985;BME280;9626;52.552;13.436;2023-04-26T01:51:18;100762.88;;;3.64;100.00
18985;BME280;9626;52.552;13.436;2023-04-26T01:53:44;100763.75;;;3.66;100.00
18985;BME280;9626;52.552;13.436;2023-04-26T01:56:10;100756.63;;;3.53;100.00
18985;BME280;9626;52.552;13.436;2023-04-26T01:58:36;100772.28;;;3.47;100.00
18985;BME280;9626;52.552;13.436;2023-04-26T02:01:06;100765.28;;;3.43;100.00
18985;BME280;9626;52.552;13.436;2023-04-26T02:03:33;100761.81;;;3.44;100.00
18985;BME280;9626;52.552;13.436;2023-04-26T02:05:59;100760.91;;;3.46;100.00
18985;BME280;9626;52.552;13.436;2023-04-26T02:08:25;100761.72;;;3.37;100.00
18985;BME280;9626;52.552;13.436;2023-04-26T02:10:52;100764.22;;;3.30;100.00
18985;BME280;9626;52.552;13.436;2023-04-26T02:13:17;100759.84;;;3.27;100.00
18985;BME280;9626;52.552;13.436;2023-04-26T02:15:47;100759.03;;;3.31;100.00
18985;BME280;9626;52.552;13.436;2023-04-26T02:18:14;100762.53;;;3.33;100.00
18985;BME280;9626;52.552;13.436;2023-04-26T02:20:40;100765.13;;;3.30;100.00
18985;BME280;9626;52.552;13.436;2023-04-26T02:23:11;100764.19;;;3.24;100.00
18985;BME280;9626;52.552;13.436;2023-04-26T02:25:37;100753.66;;;3.19;100.00
18985;BME280;9626;52.552;13.436;2023-04-26T02:28:04;100759.69;;;3.13;100.00
18985;BME280;9626;52.552;13.436;2023-04-26T02:30:31;100763.22;;;3.17;100.00
18985;BME280;9626;52.552;13.436;2023-04-26T02:32:58;100764.09;;;3.19;100.00
18985;BME280;9626;52.552;13.436;2023-04-26T02:35:24;100762.41;;;3.22;100.00
18985;BME280;9626;52.552;13.436;2023-04-26T02:37:50;100760.63;;;3.17;100.00
18985;BME280;9626;52.552;13.436;2023-04-26T02:40:18;100759.69;;;3.12;100.00
18985;BME280;9626;52.552;13.436;2023-04-26T02:42:44;100759.75;;;3.18;100.00
18985;BME280;9626;52.552;13.436;2023-04-26T02:45:10;100760.66;;;3.21;100.00
18985;BME280;9626;52.552;13.436;2023-04-26T02:47:36;100760.56;;;3.12;100.00
18985;BME280;9626;52.552;13.436;2023-04-26T02:50:07;100757.97;;;3.14;100.00
18985;BME280;9626;52.552;13.436;2023-04-26T02:52:34;100756.09;;;3.03;100.00
18985;BME280;9626;52.552;13.436;2023-04-26T02:55:01;100763.81;;;2.96;100.00
18985;BME280;9626;52.552;13.436;2023-04-26T02:57:27;100756.94;;;3.01;100.00
18985;BME280;9626;52.552;13.436;2023-04-26T02:59:54;100764.78;;;3.02;100.00
18985;BME280;9626;52.552;13.436;2023-04-26T03:02:20;100758.66;;;2.99;100.00
18985;BME280;9626;52.552;13.436;2023-04-26T03:04:46;100761.19;;;2.94;100.00
18985;BME280;9626;52.552;13.436;2023-04-26T03:07:12;100758.66;;;2.99;100.00
18985;BME280;9626;52.552;13.436;2023-04-26T03:09:39;100756.88;;;2.95;100.00
18985;BME280;9626;52.552;13.436;2023-04-26T03:12:06;100765.59;;;2.98;100.00
18985;BME280;9626;52.552;13.436;2023-04-26T03:14:32;100760.44;;;3.01;100.00
18985;BME280;9626;52.552;13.436;2023-04-26T03:16:59;100764.75;;;2.98;100.00
18985;BME280;9626;52.552;13.436;2023-04-26T03:19:25;100769.97;;;2.96;100.00
18985;BME280;9626;52.552;13.436;2023-04-26T03:21:54;100768.22;;;2.98;100.00
18985;BME280;9626;52.552;13.436;2023-04-26T03:24:20;100773.38;;;2.89;100.00
18985;BME280;9626;52.552;13.436;2023-04-26T03:26:46;100763.69;;;2.85;100.00
18985;BME280;9626;52.552;13.436;2023-04-26T03:29:12;100778.59;;;2.89;100.00
18985;BME280;9626;52.552;13.436;2023-04-26T03:31:38;100769.97;;;2.96;100.00
18985;BME280;9626;52.552;13.436;2023-04-26T03:34:04;100784.84;;;3.00;100.00
18985;BME280;9626;52.552;13.436;2023-04-26T03:36:32;100781.28;;;2.97;100.00
18985;BME280;9626;52.552;13.436;2023-04-26T03:38:58;100778.66;;;2.95;100.00
18985;BME280;9626;52.552;13.436;2023-04-26T03:41:24;100777.69;;;2.88;100.00
18985;BME280;9626;52.552;13.436;2023-04-26T03:43:50;100776.81;;;2.88;100.00
18985;BME280;9626;52.552;13.436;2023-04-26T03:46:16;100782.06;;;2.88;100.00
18985;BME280;9626;52.552;13.436;2023-04-26T03:48:42;100783.03;;;2.96;100.00
18985;BME280;9626;52.552;13.436;2023-04-26T03:51:08;100789.00;;;2.87;100.00
18985;BME280;9626;52.552;13.436;2023-04-26T03:53:34;100788.09;;;2.84;100.00
18985;BME280;9626;52.552;13.436;2023-04-26T03:56:00;100788.84;;;2.77;100.00
18985;BME280;9626;52.552;13.436;2023-04-26T03:58:26;100789.78;;;2.79;100.00
18985;BME280;9626;52.552;13.436;2023-04-26T04:00:56;100796.00;;;2.87;100.00
18985;BME280;9626;52.552;13.436;2023-04-26T04:03:23;100790.66;;;2.81;100.00
18985;BME280;9626;52.552;13.436;2023-04-26T04:05:49;100789.75;;;2.77;100.00
18985;BME280;9626;52.552;13.436;2023-04-26T04:08:15;100796.81;;;2.84;100.00
18985;BME280;9626;52.552;13.436;2023-04-26T04:10:41;100792.38;;;2.79;100.00
18985;BME280;9626;52.552;13.436;2023-04-26T04:13:07;100795.84;;;2.78;100.00
18985;BME280;9626;52.552;13.436;2023-04-26T04:15:33;100797.69;;;2.85;100.00
18985;BME280;9626;52.552;13.436;2023-04-26T04:17:59;100799.53;;;2.89;100.00
18985;BME280;9626;52.552;13.436;2023-04-26T04:20:25;100799.44;;;2.86;100.00
18985;BME280;9626;52.552;13.436;2023-04-26T04:22:52;100797.69;;;2.85;100.00
18985;BME280;9626;52.552;13.436;2023-04-26T04:25:18;100800.34;;;2.86;100.00
18985;BME280;9626;52.552;13.436;2023-04-26T04:27:47;100795.16;;;2.90;100.00
18985;BME280;9626;52.552;13.436;2023-04-26T04:30:13;100799.59;;;2.95;100.00
18985;BME280;9626;52.552;13.436;2023-04-26T04:32:40;100802.31;;;3.01;100.00
18985;BME280;9626;52.552;13.436;2023-04-26T04:35:09;100810.97;;;2.97;100.00
18985;BME280;9626;52.552;13.436;2023-04-26T04:37:35;100804.78;;;2.92;100.00
18985;BME280;9626;52.552;13.436;2023-04-26T04:40:03;100810.00;;;2.92;100.00
18985;BME280;9626;52.552;13.436;2023-04-26T04:42:29;100816.09;;;2.90;100.00
18985;BME280;9626;52.552;13.436;2023-04-26T04:44:55;100811.69;;;2.87;100.00
18985;BME280;9626;52.552;13.436;2023-04-26T04:47:22;100819.47;;;2.82;100.00
18985;BME280;9626;52.552;13.436;2023-04-26T04:49:48;100816.00;;;2.85;100.00
18985;BME280;9626;52.552;13.436;2023-04-26T04:52:14;100816.88;;;2.84;100.00
18985;BME280;9626;52.552;13.436;2023-04-26T04:54:40;100822.19;;;2.90;100.00
18985;BME280;9626;52.552;13.436;2023-04-26T04:57:09;100827.63;;;3.06;100.00
18985;BME280;9626;52.552;13.436;2023-04-26T04:59:35;100829.34;;;3.03;100.00
18985;BME280;9626;52.552;13.436;2023-04-26T05:02:02;100830.19;;;3.02;100.00
18985;BME280;9626;52.552;13.436;2023-04-26T05:04:28;100829.38;;;3.07;100.00
18985;BME280;9626;52.552;13.436;2023-04-26T05:06:54;100837.22;;;3.05;100.00
18985;BME280;9626;52.552;13.436;2023-04-26T05:09:20;100831.09;;;3.04;100.00
18985;BME280;9626;52.552;13.436;2023-04-26T05:11:47;100838.88;;;3.00;100.00
18985;BME280;9626;52.552;13.436;2023-04-26T05:14:13;100843.44;;;3.15;100.00
18985;BME280;9626;52.552;13.436;2023-04-26T05:16:39;100846.13;;;3.18;100.00
18985;BME280;9626;52.552;13.436;2023-04-26T05:19:06;100848.78;;;3.22;100.00
18985;BME280;9626;52.552;13.436;2023-04-26T05:21:33;100852.38;;;3.32;100.00
18985;BME280;9626;52.552;13.436;2023-04-26T05:23:59;100848.94;;;3.36;100.00
18985;BME280;9626;52.552;13.436;2023-04-26T05:26:25;100842.84;;;3.36;100.00
18985;BME280;9626;52.552;13.436;2023-04-26T05:28:51;100859.50;;;3.40;100.00
18985;BME280;9626;52.552;13.436;2023-04-26T05:31:17;100856.09;;;3.50;100.00
18985;BME280;9626;52.552;13.436;2023-04-26T05:33:43;100852.53;;;3.45;100.00
18985;BME280;9626;52.552;13.436;2023-04-26T05:36:09;100860.41;;;3.46;100.00
18985;BME280;9626;52.552;13.436;2023-04-26T05:38:35;100859.56;;;3.49;100.00
18985;BME280;9626;52.552;13.436;2023-04-26T05:41:04;100862.16;;;3.44;100.00
18985;BME280;9626;52.552;13.436;2023-04-26T05:43:30;100866.56;;;3.50;100.00
18985;BME280;9626;52.552;13.436;2023-04-26T05:45:56;100866.72;;;3.62;100.00
18985;BME280;9626;52.552;13.436;2023-04-26T05:48:23;100860.72;;;3.71;100.00
18985;BME280;9626;52.552;13.436;2023-04-26T05:50:50;100871.22;;;3.74;100.00
18985;BME280;9626;52.552;13.436;2023-04-26T05:53:17;100862.56;;;3.80;100.00
18985;BME280;9626;52.552;13.436;2023-04-26T05:55:44;100879.22;;;3.85;100.00
18985;BME280;9626;52.552;13.436;2023-04-26T05:58:10;100865.28;;;3.89;100.00
18985;BME280;9626;52.552;13.436;2023-04-26T06:00:37;100863.59;;;3.94;100.00
18985;BME280;9626;52.552;13.436;2023-04-26T06:03:04;100865.44;;;4.07;100.00
18985;BME280;9626;52.552;13.436;2023-04-26T06:05:30;100862.09;;;4.21;100.00
18985;BME280;9626;52.552;13.436;2023-04-26T06:07:57;100870.88;;;4.25;100.00
18985;BME280;9626;52.552;13.436;2023-04-26T06:10:23;100865.63;;;4.23;100.00
18985;BME280;9626;52.552;13.436;2023-04-26T06:12:49;100876.19;;;4.32;100.00
18985;BME280;9626;52.552;13.436;2023-04-26T06:15:15;100874.44;;;4.34;100.00
18985;BME280;9626;52.552;13.436;2023-04-26T06:17:41;100879.78;;;4.42;100.00
18985;BME280;9626;52.552;13.436;2023-04-26T06:20:08;100879.88;;;4.56;100.00
18985;BME280;9626;52.552;13.436;2023-04-26T06:22:35;100873.81;;;4.63;100.00
18985;BME280;9626;52.552;13.436;2023-04-26T06:25:01;100878.22;;;4.67;100.00
18985;BME280;9626;52.552;13.436;2023-04-26T06:27:27;100872.94;;;4.64;100.00
18985;BME280;9626;52.552;13.436;2023-04-26T06:29:53;100873.91;;;4.77;100.00
18985;BME280;9626;52.552;13.436;2023-04-26T06:32:19;100880.03;;;4.78;100.00
18985;BME280;9626;52.552;13.436;2023-04-26T06:34:45;100873.97;;;4.86;100.00
18985;BME280;9626;52.552;13.436;2023-04-26T06:37:11;100875.72;;;4.86;100.00
18985;BME280;9626;52.552;13.436;2023-04-26T06:39:37;100888.94;;;5.04;100.00
18985;BME280;9626;52.552;13.436;2023-04-26T06:42:04;100893.38;;;5.10;100.00
18985;BME280;9626;52.552;13.436;2023-04-26T06:44:30;100887.25;;;5.10;100.00
18985;BME280;9626;52.552;13.436;2023-04-26T06:46:56;100889.84;;;5.08;100.00
18985;BME280;9626;52.552;13.436;2023-04-26T06:49:23;100884.66;;;5.14;100.00
18985;BME280;9626;52.552;13.436;2023-04-26T06:51:49;100881.25;;;5.31;100.00
18985;BME280;9626;52.552;13.436;2023-04-26T06:54:18;100897.00;;;5.35;100.00
18985;BME280;9626;52.552;13.436;2023-04-26T06:56:44;100897.00;;;5.37;100.00
18985;BME280;9626;52.552;13.436;2023-04-26T06:59:10;100892.63;;;5.31;100.00
18985;BME280;9626;52.552;13.436;2023-04-26T07:01:37;100883.03;;;5.39;100.00
18985;BME280;9626;52.552;13.436;2023-04-26T07:04:05;100890.03;;;5.42;100.00
18985;BME280;9626;52.552;13.436;2023-04-26T07:06:36;100884.03;;;5.63;100.00
18985;BME280;9626;52.552;13.436;2023-04-26T07:09:02;100885.78;;;5.73;100.00
18985;BME280;9626;52.552;13.436;2023-04-26T07:11:29;100894.50;;;5.60;100.00
18985;BME280;9626;52.552;13.436;2023-04-26T07:13:56;100892.78;;;5.62;100.00
18985;BME280;9626;52.552;13.436;2023-04-26T07:16:22;100897.16;;;5.71;100.00
18985;BME280;9626;52.552;13.436;2023-04-26T07:18:48;100889.31;;;5.85;100.00
18985;BME280;9626;52.552;13.436;2023-04-26T07:21:14;100891.94;;;5.83;100.00
18985;BME280;9626;52.552;13.436;2023-04-26T07:23:41;100891.19;;;6.04;100.00
18985;BME280;9626;52.552;13.436;2023-04-26T07:26:09;100899.91;;;5.97;100.00
18985;BME280;9626;52.552;13.436;2023-04-26T07:28:35;100892.06;;;6.19;100.00
18985;BME280;9626;52.552;13.436;2023-04-26T07:31:01;100902.59;;;6.30;99.01
18985;BME280;9626;52.552;13.436;2023-04-26T07:33:27;100892.94;;;6.25;98.83
18985;BME280;9626;52.552;13.436;2023-04-26T07:35:58;100888.56;;;6.23;99.65
18985;BME280;9626;52.552;13.436;2023-04-26T07:38:24;100899.09;;;6.46;95.80
18985;BME280;9626;52.552;13.436;2023-04-26T07:40:50;100897.38;;;6.59;95.57
18985;BME280;9626;52.552;13.436;2023-04-26T07:43:18;100903.50;;;6.70;93.52
18985;BME280;9626;52.552;13.436;2023-04-26T07:45:44;100910.50;;;6.54;93.87
18985;BME280;9626;52.552;13.436;2023-04-26T07:48:12;100901.75;;;6.51;92.19
18985;BME280;9626;52.552;13.436;2023-04-26T07:50:38;100902.66;;;6.68;89.47
18985;BME280;9626;52.552;13.436;2023-04-26T07:53:04;100909.66;;;6.77;88.12
18985;BME280;9626;52.552;13.436;2023-04-26T07:55:31;100912.28;;;7.05;83.66
18985;BME280;9626;52.552;13.436;2023-04-26T07:57:57;100915.75;;;7.11;80.30
18985;BME280;9626;52.552;13.436;2023-04-26T08:00:23;100909.63;;;6.92;81.37
18985;BME280;9626;52.552;13.436;2023-04-26T08:02:49;100920.16;;;7.08;79.79
18985;BME280;9626;52.552;13.436;2023-04-26T08:05:15;100915.75;;;7.08;79.16
18985;BME280;9626;52.552;13.436;2023-04-26T08:07:42;100916.63;;;7.12;78.99
18985;BME280;9626;52.552;13.436;2023-04-26T08:10:08;100914.91;;;6.86;80.67
18985;BME280;9626;52.552;13.436;2023-04-26T08:12:35;100918.31;;;7.42;77.32
18985;BME280;9626;52.552;13.436;2023-04-26T08:15:02;100925.41;;;7.17;78.90
18985;BME280;9626;52.552;13.436;2023-04-26T08:17:31;100912.25;;;7.06;76.12
18985;BME280;9626;52.552;13.436;2023-04-26T08:19:58;100926.28;;;6.99;76.19
18985;BME280;9626;52.552;13.436;2023-04-26T08:22:24;100921.03;;;6.98;79.68
18985;BME280;9626;52.552;13.436;2023-04-26T08:24:53;100931.56;;;7.15;79.34
18985;BME280;9626;52.552;13.436;2023-04-26T08:27:19;100933.25;;;7.36;77.92
18985;BME280;9626;52.552;13.436;2023-04-26T08:29:45;100930.56;;;7.64;73.22
18985;BME280;9626;52.552;13.436;2023-04-26T08:32:12;100936.66;;;7.76;71.67
18985;BME280;9626;52.552;13.436;2023-04-26T08:34:38;100926.09;;;7.76;69.21
18985;BME280;9626;52.552;13.436;2023-04-26T08:37:06;100929.50;;;7.99;66.80
18985;BME280;9626;52.552;13.436;2023-04-26T08:39:32;100924.00;;;8.40;64.76
18985;BME280;9626;52.552;13.436;2023-04-26T08:42:04;100925.56;;;8.69;62.63
18985;BME280;9626;52.552;13.436;2023-04-26T08:44:32;100923.47;;;9.08;60.48
18985;BME280;9626;52.552;13.436;2023-04-26T08:47:21;100924.44;;;8.98;60.54
18985;BME280;9626;52.552;13.436;2023-04-26T08:49:53;100931.00;;;8.48;64.50
18985;BME280;9626;52.552;13.436;2023-04-26T08:52:28;100926.00;;;8.00;71.90
18985;BME280;9626;52.552;13.436;2023-04-26T08:54:56;100928.75;;;7.72;75.66
18985;BME280;9626;52.552;13.436;2023-04-26T08:57:25;100934.06;;;7.63;74.82
18985;BME280;9626;52.552;13.436;2023-04-26T08:59:53;100932.88;;;8.27;70.42
18985;BME280;9626;52.552;13.436;2023-04-26T09:02:23;100931.03;;;8.41;63.51
18985;BME280;9626;52.552;13.436;2023-04-26T09:04:49;100924.81;;;8.52;62.15
18985;BME280;9626;52.552;13.436;2023-04-26T09:07:34;100936.34;;;8.32;63.73
18985;BME280;9626;52.552;13.436;2023-04-26T09:10:03;100931.19;;;8.13;65.06
18985;BME280;9626;52.552;13.436;2023-04-26T09:12:30;100944.50;;;7.93;67.72
18985;BME280;9626;52.552;13.436;2023-04-26T09:14:56;100935.72;;;7.87;65.70
18985;BME280;9626;52.552;13.436;2023-04-26T09:17:30;100952.50;;;7.58;66.93
18985;BME280;9626;52.552;13.436;2023-04-26T09:19:56;100945.53;;;7.44;68.61
18985;BME280;9626;52.552;13.436;2023-04-26T09:22:34;100936.75;;;7.42;70.61
18985;BME280;9626;52.552;13.436;2023-04-26T09:25:04;100941.09;;;7.59;69.60
18985;BME280;9626;52.552;13.436;2023-04-26T09:27:37;100938.34;;;7.90;68.92
18985;BME280;9626;52.552;13.436;2023-04-26T09:30:06;100938.97;;;8.34;63.97
18985;BME280;9626;52.552;13.436;2023-04-26T09:32:58;100934.53;;;8.42;62.70
18985;BME280;9626;52.552;13.436;2023-04-26T09:35:32;100935.53;;;8.22;62.51
18985;BME280;9626;52.552;13.436;2023-04-26T09:38:05;100933.03;;;7.99;62.40
18985;BME280;9626;52.552;13.436;2023-04-26T09:40:36;100939.25;;;7.81;63.81
18985;BME280;9626;52.552;13.436;2023-04-26T09:43:19;100941.06;;;7.68;64.49
18985;BME280;9626;52.552;13.436;2023-04-26T09:45:46;100946.34;;;7.74;64.84
18985;BME280;9626;52.552;13.436;2023-04-26T09:48:31;100935.66;;;7.99;62.03
18985;BME280;9626;52.552;13.436;2023-04-26T09:51:09;100940.66;;;8.50;58.55
18985;BME280;9626;52.552;13.436;2023-04-26T09:53:40;100931.19;;;8.17;60.06
18985;BME280;9626;52.552;13.436;2023-04-26T09:56:11;100940.03;;;8.06;61.49
18985;BME280;9626;52.552;13.436;2023-04-26T09:58:40;100941.81;;;8.01;62.99
18985;BME280;9626;52.552;13.436;2023-04-26T10:01:23;100934.72;;;8.08;62.89
18985;BME280;9626;52.552;13.436;2023-04-26T10:03:49;100939.03;;;8.23;62.91
18985;BME280;9626;52.552;13.436;2023-04-26T10:06:16;100937.31;;;8.20;64.44
18985;BME280;9626;52.552;13.436;2023-04-26T10:08:43;100941.75;;;8.17;64.91
18985;BME280;9626;52.552;13.436;2023-04-26T10:11:09;100940.88;;;8.08;64.22
18985;BME280;9626;52.552;13.436;2023-04-26T10:13:36;100947.13;;;7.89;62.43
18985;BME280;9626;52.552;13.436;2023-04-26T10:16:03;100948.06;;;7.77;60.50
18985;BME280;9626;52.552;13.436;2023-04-26T10:18:30;100946.28;;;7.87;60.01
18985;BME280;9626;52.552;13.436;2023-04-26T10:20:59;100944.41;;;8.03;57.74
18985;BME280;9626;52.552;13.436;2023-04-26T10:23:27;100946.22;;;8.01;57.32
18985;BME280;9626;52.552;13.436;2023-04-26T10:25:54;100947.09;;;7.98;57.65
18985;BME280;9626;52.552;13.436;2023-04-26T10:28:53;100943.59;;;7.99;58.27
18985;BME280;9626;52.552;13.436;2023-04-26T10:31:20;100950.53;;;8.11;58.91
18985;BME280;9626;52.552;13.436;2023-04-26T10:34:19;100959.41;;;7.93;58.60
18985;BME280;9626;52.552;13.436;2023-04-26T10:37:11;100947.22;;;7.72;58.20
18985;BME280;9626;52.552;13.436;2023-04-26T10:39:41;100953.38;;;7.71;58.76
18985;BME280;9626;52.552;13.436;2023-04-26T10:42:27;100956.00;;;7.72;60.43
18985;BME280;9626;52.552;13.436;2023-04-26T10:44:59;100958.59;;;7.77;60.88
18985;BME280;9626;52.552;13.436;2023-04-26T10:47:30;100959.53;;;7.68;61.60
18985;BME280;9626;52.552;13.436;2023-04-26T10:50:06;100956.81;;;7.84;61.83
18985;BME280;9626;52.552;13.436;2023-04-26T10:53:03;100953.16;;;8.12;61.97
18985;BME280;9626;52.552;13.436;2023-04-26T10:55:40;100954.53;;;8.80;57.09
18985;BME280;9626;52.552;13.436;2023-04-26T10:58:32;100955.59;;;8.53;57.23
18985;BME280;9626;52.552;13.436;2023-04-26T11:03:44;100947.63;;;8.57;58.73
18985;BME280;9626;52.552;13.436;2023-04-26T11:06:30;100952.13;;;8.48;59.08
18985;BME280;9626;52.552;13.436;2023-04-26T11:12:03;100953.13;;;8.22;57.18
18985;BME280;9626;52.552;13.436;2023-04-26T11:14:30;100950.31;;;8.53;56.23
18985;BME280;9626;52.552;13.436;2023-04-26T11:16:56;100952.81;;;8.73;55.28
18985;BME280;9626;52.552;13.436;2023-04-26T11:19:22;100951.00;;;8.76;54.60
18985;BME280;9626;52.552;13.436;2023-04-26T11:21:48;100946.47;;;8.94;52.89
18985;BME280;9626;52.552;13.436;2023-04-26T11:24:14;100950.84;;;8.98;51.49
18985;BME280;9626;52.552;13.436;2023-04-26T11:26:40;100957.06;;;8.91;51.42
18985;BME280;9626;52.552;13.436;2023-04-26T11:29:06;100946.25;;;9.19;50.73
18985;BME280;9626;52.552;13.436;2023-04-26T11:31:34;100946.78;;;9.53;49.84
18985;BME280;9626;52.552;13.436;2023-04-26T11:34:04;100950.94;;;9.74;50.16
18985;BME280;9626;52.552;13.436;2023-04-26T11:36:30;100949.50;;;10.19;49.33
18985;BME280;9626;52.552;13.436;2023-04-26T11:38:56;100954.19;;;9.95;50.04
18985;BME280;9626;52.552;13.436;2023-04-26T11:41:22;100955.31;;;9.77;48.59
18985;BME280;9626;52.552;13.436;2023-04-26T11:43:49;100953.25;;;9.26;49.23
18985;BME280;9626;52.552;13.436;2023-04-26T11:46:15;100949.00;;;9.09;48.45
18985;BME280;9626;52.552;13.436;2023-04-26T11:48:41;100950.56;;;9.27;48.80
18985;BME280;9626;52.552;13.436;2023-04-26T11:51:07;100945.13;;;9.43;48.51
18985;BME280;9626;52.552;13.436;2023-04-26T11:53:41;100948.34;;;9.70;48.34
18985;BME280;9626;52.552;13.436;2023-04-26T11:56:17;100948.91;;;9.95;48.48
18985;BME280;9626;52.552;13.436;2023-04-26T11:58:51;100947.16;;;10.59;47.88
18985;BME280;9626;52.552;13.436;2023-04-26T12:01:25;100952.22;;;11.26;45.66
18985;BME280;9626;52.552;13.436;2023-04-26T12:03:53;100954.75;;;11.32;44.37
18985;BME280;9626;52.552;13.436;2023-04-26T12:06:25;100949.38;;;11.36;44.19
18985;BME280;9626;52.552;13.436;2023-04-26T12:08:55;100958.16;;;11.39;42.72
18985;BME280;9626;52.552;13.436;2023-04-26T12:11:21;100957.31;;;11.37;43.60
18985;BME280;9626;52.552;13.436;2023-04-26T12:13:47;100958.06;;;11.45;43.96
18985;BME280;9626;52.552;13.436;2023-04-26T12:16:13;100953.72;;;10.91;44.47
18985;BME280;9626;52.552;13.436;2023-04-26T12:18:40;100955.97;;;9.96;47.57
18985;BME280;9626;52.552;13.436;2023-04-26T12:21:06;100957.75;;;9.94;48.45
18985;BME280;9626;52.552;13.436;2023-04-26T12:23:39;100956.44;;;10.26;48.71
18985;BME280;9626;52.552;13.436;2023-04-26T12:26:05;100963.50;;;10.24;48.47
18985;BME280;9626;52.552;13.436;2023-04-26T12:28:32;100960.78;;;10.30;48.50
18985;BME280;9626;52.552;13.436;2023-04-26T12:30:58;100964.69;;;10.03;48.73
18985;BME280;9626;52.552;13.436;2023-04-26T12:33:25;100964.59;;;9.36;49.71
18985;BME280;9626;52.552;13.436;2023-04-26T12:35:51;100961.78;;;9.50;49.99
18985;BME280;9626;52.552;13.436;2023-04-26T12:38:18;100960.56;;;9.80;50.08
18985;BME280;9626;52.552;13.436;2023-04-26T12:40:44;100961.50;;;10.44;49.40
18985;BME280;9626;52.552;13.436;2023-04-26T12:43:10;100963.94;;;11.13;48.25
18985;BME280;9626;52.552;13.436;2023-04-26T12:45:36;100965.50;;;11.25;47.82
18985;BME280;9626;52.552;13.436;2023-04-26T12:48:03;100966.09;;;11.84;46.25
18985;BME280;9626;52.552;13.436;2023-04-26T12:50:29;100971.69;;;11.71;46.51
18985;BME280;9626;52.552;13.436;2023-04-26T12:52:55;100971.19;;;11.52;46.43
18985;BME280;9626;52.552;13.436;2023-04-26T12:55:21;100957.13;;;11.46;46.04
18985;BME280;9626;52.552;13.436;2023-04-26T12:57:48;100967.72;;;11.46;46.31
18985;BME280;9626;52.552;13.436;2023-04-26T13:00:15;100952.81;;;10.92;46.85
18985;BME280;9626;52.552;13.436;2023-04-26T13:02:42;100962.19;;;11.59;44.78